Tasman — ZDKI2 — position and weather

sailwx.info

Track history (hours):
 
Tides and Currents Weather Stations Pressure Air Temp Water Temp Dewpoint Dewpoint Depression Visibility Wind Speed Wind Dir Waves Ship Positions

Tasman

Last reported at 2016-Jan-13 06:33 UTC. Time now 2016-Feb-09 03:18 UTC.
Position N 50°31' W 000°07'.
Warning: this ship's position is 26 days out of date.

Length 90 m; draft 4 m.

Type: Ship. MMSI: 23617000.

Date/timePositionNaut miles runAvg speedWind from/ knotsBaromVisibWave heightAir tempDewpointWater temp
2016-Jan-13 06:33N 50°31' W 000°07'1211.6
2016-Jan-13 05:34N 50°34' E 000°10'1211.6
2016-Jan-13 04:33N 50°38' E 000°28'1111.0
2016-Jan-13 03:33N 50°43' E 000°43'1010.3
2016-Jan-13 02:33N 50°49' E 000°57'10 9.5
2016-Jan-13 01:30N 50°55' E 001°09'8 8.8
2016-Jan-13 00:33N 50°60' E 001°20'9 9.5
2016-Jan-12 23:34N 51°06' E 001°31'1211.8
2016-Jan-12 22:33N 51°14' E 001°45'1313.2
2016-Jan-12 21:33N 51°26' E 001°55'1212.1
2016-Jan-12 20:33N 51°36' E 002°06'38 9.3
2016-Jan-12 16:28N 52°04' E 002°47'140 9.2
2016-Jan-12 01:10N 53°59' E 005°01'711.1
2016-Jan-12 00:33N 54°05' E 005°07'1311.0
2016-Jan-11 23:25N 54°16' E 005°18'22110.6
2016-Jan-11 02:30N 57°19' E 008°59'1010.5
2016-Jan-11 01:33N 57°25' E 009°15'1110.7
2016-Jan-11 00:32N 57°30' E 009°32'1010.7
2016-Jan-10 23:33N 57°36' E 009°49'1110.8
2016-Jan-10 22:33N 57°40' E 010°07'1111.3
2016-Jan-10 21:32N 57°45' E 010°27'1111.1
2016-Jan-10 20:33N 57°46' E 010°47'1211.7
2016-Jan-10 19:34N 57°42' E 011°08'1111.1
2016-Jan-10 18:33N 57°39' E 011°27'10 9.8
2016-Jan-10 17:34N 57°39' E 011°45'1 1.1
2016-Jan-10 16:33N 57°40' E 011°47'0 0.0
2016-Jan-10 15:34N 57°40' E 011°47'0 0.0
2016-Jan-10 14:33N 57°40' E 011°47'0 0.0
2016-Jan-10 13:33N 57°40' E 011°47'0 0.0
2016-Jan-10 12:33N 57°40' E 011°47'1 0.8
2016-Jan-10 11:33N 57°40' E 011°46'10 9.8
2016-Jan-10 10:33N 57°30' E 011°41'1211.7
2016-Jan-10 09:30N 57°19' E 011°49'7812.5
2016-Jan-10 03:16N 56°05' E 012°36'913.2
2016-Jan-10 02:33N 55°57' E 012°43'1212.2
2016-Jan-10 01:33N 55°44' E 012°41'1212.2
2016-Jan-10 00:34N 55°32' E 012°43'1211.8
2016-Jan-09 23:33N 55°21' E 012°41'1211.8
2016-Jan-09 22:31N 55°08' E 012°39'2311.8
2016-Jan-09 20:33N 54°46' E 012°28'1611.9
2016-Jan-09 19:13N 54°32' E 012°17'811.8
2016-Jan-09 18:33N 54°25' E 012°11'1211.4
2016-Jan-09 17:30N 54°13' E 012°05'4 4.3
2016-Jan-09 16:33N 54°09' E 012°07'0 0.0
2016-Jan-09 15:33N 54°09' E 012°07'0 0.0
2016-Jan-09 14:33N 54°09' E 012°07'0 0.0
2016-Jan-09 12:29N 54°09' E 012°07'0 0.0
2016-Jan-09 11:33N 54°09' E 012°07'0 0.0
2016-Jan-09 10:33N 54°09' E 012°07'0 0.0
2016-Jan-09 09:33N 54°09' E 012°07'0 0.0
2016-Jan-09 08:33N 54°09' E 012°07'0 0.0
2016-Jan-09 07:29N 54°09' E 012°07'0 0.0
2016-Jan-09 06:33N 54°09' E 012°07'0 0.0
2016-Jan-09 05:34N 54°09' E 012°07'0 0.0
2016-Jan-09 04:20N 54°09' E 012°07'1 0.5
2016-Jan-09 03:11N 54°09' E 012°06'0 0.0
2016-Jan-09 01:25N 54°09' E 012°06'0 0.0
2016-Jan-09 00:12N 54°09' E 012°06'0 0.0
2016-Jan-08 22:33N 54°09' E 012°06'0 0.0
2016-Jan-08 20:32N 54°09' E 012°06'0 0.0
2016-Jan-08 19:28N 54°09' E 012°06'0 0.0
2016-Jan-08 16:27N 54°09' E 012°06'0 0.0
2016-Jan-08 15:33N 54°09' E 012°06'0 0.0
2016-Jan-08 14:17N 54°09' E 012°06'0 0.0
2016-Jan-08 13:29N 54°09' E 012°06'0 0.0
2016-Jan-08 12:22N 54°09' E 012°06'0 0.0
2016-Jan-08 07:32N 54°09' E 012°06'0 0.0
2016-Jan-07 21:28N 54°09' E 012°06'0 0.0
2016-Jan-07 18:30N 54°09' E 012°06'0 0.0
2016-Jan-07 12:33N 54°09' E 012°06'0 0.0
2016-Jan-07 09:26N 54°09' E 012°06'0 0.0
2016-Jan-07 05:15N 54°09' E 012°06'0 0.0
2016-Jan-07 04:08N 54°09' E 012°06'0 0.0
2016-Jan-07 01:28N 54°09' E 012°06'0 0.0
2016-Jan-06 21:26N 54°09' E 012°06'0 0.0
2016-Jan-06 20:26N 54°09' E 012°06'0 0.0
2016-Jan-06 17:28N 54°09' E 012°06'0 0.0
2016-Jan-06 11:07N 54°09' E 012°06'0 0.0
2016-Jan-06 10:10N 54°09' E 012°06'0 0.0
2016-Jan-06 08:15N 54°09' E 012°06'0 0.0
2016-Jan-06 07:29N 54°09' E 012°06'0 0.0
2016-Jan-06 04:22N 54°09' E 012°06'0 0.0
2016-Jan-06 03:28N 54°09' E 012°06'0 0.0
2016-Jan-05 23:29N 54°09' E 012°06'0 0.0
2016-Jan-05 22:10N 54°09' E 012°06'0 0.0
2016-Jan-05 21:31N 54°09' E 012°06'0 0.0
2016-Jan-05 19:33N 54°09' E 012°06'0 0.0
2016-Jan-05 16:29N 54°09' E 012°06'0 0.0
2016-Jan-05 11:33N 54°09' E 012°06'0 0.0
2016-Jan-05 07:13N 54°09' E 012°06'0 0.0
2016-Jan-05 03:32N 54°09' E 012°06'0 0.0
2016-Jan-05 01:07N 54°09' E 012°06'0 0.0
2016-Jan-05 00:28N 54°09' E 012°06'0 0.0
2016-Jan-04 22:21N 54°09' E 012°06'0 0.0
2016-Jan-04 21:30N 54°09' E 012°06'0 0.0
2016-Jan-04 20:23N 54°09' E 012°06'0 0.0
2016-Jan-04 19:29N 54°09' E 012°06'0 0.0
2016-Jan-04 17:22N 54°09' E 012°06'0 0.0
2016-Jan-04 12:11N 54°09' E 012°06'0 0.0
2016-Jan-04 10:31N 54°09' E 012°06'0 0.0
2016-Jan-04 05:20N 54°09' E 012°06'0 0.0
2016-Jan-04 02:27N 54°09' E 012°06'0 0.0
2016-Jan-03 21:31N 54°09' E 012°06'0 0.0
2016-Jan-03 20:07N 54°09' E 012°06'0 0.0
2016-Jan-03 18:12N 54°09' E 012°06'0 0.0
2016-Jan-03 13:25N 54°09' E 012°06'0 0.0
2016-Jan-03 12:18N 54°09' E 012°06'0 0.0
2016-Jan-03 08:23N 54°09' E 012°06'  
Track history (hours):
 
Tides and Currents Weather Stations Pressure Air Temp Water Temp Dewpoint Dewpoint Depression Visibility Wind Speed Wind Dir Waves Ship Positions

Tasman

Last reported at 2016-Jan-13 06:33 UTC. Time now 2016-Feb-09 03:18 UTC.
Position N 50°31' W 000°07'.
Warning: this ship's position is 26 days out of date.

Length 90 m; draft 4 m.

Type: Ship. MMSI: 23617000.

Date/timePositionNaut miles runAvg speedWind from/ knotsBaromVisibWave heightAir tempDewpointWater temp
2016-Jan-13 06:33N 50°31' W 000°07'1211.6
2016-Jan-13 05:34N 50°34' E 000°10'1211.6
2016-Jan-13 04:33N 50°38' E 000°28'1111.0
2016-Jan-13 03:33N 50°43' E 000°43'1010.3
2016-Jan-13 02:33N 50°49' E 000°57'10 9.5
2016-Jan-13 01:30N 50°55' E 001°09'8 8.8
2016-Jan-13 00:33N 50°60' E 001°20'9 9.5
2016-Jan-12 23:34N 51°06' E 001°31'1211.8
2016-Jan-12 22:33N 51°14' E 001°45'1313.2
2016-Jan-12 21:33N 51°26' E 001°55'1212.1
2016-Jan-12 20:33N 51°36' E 002°06'38 9.3
2016-Jan-12 16:28N 52°04' E 002°47'140 9.2
2016-Jan-12 01:10N 53°59' E 005°01'711.1
2016-Jan-12 00:33N 54°05' E 005°07'1311.0
2016-Jan-11 23:25N 54°16' E 005°18'22110.6
2016-Jan-11 02:30N 57°19' E 008°59'1010.5
2016-Jan-11 01:33N 57°25' E 009°15'1110.7
2016-Jan-11 00:32N 57°30' E 009°32'1010.7
2016-Jan-10 23:33N 57°36' E 009°49'1110.8
2016-Jan-10 22:33N 57°40' E 010°07'1111.3
2016-Jan-10 21:32N 57°45' E 010°27'1111.1
2016-Jan-10 20:33N 57°46' E 010°47'1211.7
2016-Jan-10 19:34N 57°42' E 011°08'1111.1
2016-Jan-10 18:33N 57°39' E 011°27'10 9.8
2016-Jan-10 17:34N 57°39' E 011°45'1 1.1
2016-Jan-10 16:33N 57°40' E 011°47'0 0.0
2016-Jan-10 15:34N 57°40' E 011°47'0 0.0
2016-Jan-10 14:33N 57°40' E 011°47'0 0.0
2016-Jan-10 13:33N 57°40' E 011°47'0 0.0
2016-Jan-10 12:33N 57°40' E 011°47'1 0.8
2016-Jan-10 11:33N 57°40' E 011°46'10 9.8
2016-Jan-10 10:33N 57°30' E 011°41'1211.7
2016-Jan-10 09:30N 57°19' E 011°49'7812.5
2016-Jan-10 03:16N 56°05' E 012°36'913.2
2016-Jan-10 02:33N 55°57' E 012°43'1212.2
2016-Jan-10 01:33N 55°44' E 012°41'1212.2
2016-Jan-10 00:34N 55°32' E 012°43'1211.8
2016-Jan-09 23:33N 55°21' E 012°41'1211.8
2016-Jan-09 22:31N 55°08' E 012°39'2311.8
2016-Jan-09 20:33N 54°46' E 012°28'1611.9
2016-Jan-09 19:13N 54°32' E 012°17'811.8
2016-Jan-09 18:33N 54°25' E 012°11'1211.4
2016-Jan-09 17:30N 54°13' E 012°05'4 4.3
2016-Jan-09 16:33N 54°09' E 012°07'0 0.0
2016-Jan-09 15:33N 54°09' E 012°07'0 0.0
2016-Jan-09 14:33N 54°09' E 012°07'0 0.0
2016-Jan-09 12:29N 54°09' E 012°07'0 0.0
2016-Jan-09 11:33N 54°09' E 012°07'0 0.0
2016-Jan-09 10:33N 54°09' E 012°07'0 0.0
2016-Jan-09 09:33N 54°09' E 012°07'0 0.0
2016-Jan-09 08:33N 54°09' E 012°07'0 0.0
2016-Jan-09 07:29N 54°09' E 012°07'0 0.0
2016-Jan-09 06:33N 54°09' E 012°07'0 0.0
2016-Jan-09 05:34N 54°09' E 012°07'0 0.0
2016-Jan-09 04:20N 54°09' E 012°07'1 0.5
2016-Jan-09 03:11N 54°09' E 012°06'0 0.0
2016-Jan-09 01:25N 54°09' E 012°06'0 0.0
2016-Jan-09 00:12N 54°09' E 012°06'0 0.0
2016-Jan-08 22:33N 54°09' E 012°06'0 0.0
2016-Jan-08 20:32N 54°09' E 012°06'0 0.0
2016-Jan-08 19:28N 54°09' E 012°06'0 0.0
2016-Jan-08 16:27N 54°09' E 012°06'0 0.0
2016-Jan-08 15:33N 54°09' E 012°06'0 0.0
2016-Jan-08 14:17N 54°09' E 012°06'0 0.0
2016-Jan-08 13:29N 54°09' E 012°06'0 0.0
2016-Jan-08 12:22N 54°09' E 012°06'0 0.0
2016-Jan-08 07:32N 54°09' E 012°06'0 0.0
2016-Jan-07 21:28N 54°09' E 012°06'0 0.0
2016-Jan-07 18:30N 54°09' E 012°06'0 0.0
2016-Jan-07 12:33N 54°09' E 012°06'0 0.0
2016-Jan-07 09:26N 54°09' E 012°06'0 0.0
2016-Jan-07 05:15N 54°09' E 012°06'0 0.0
2016-Jan-07 04:08N 54°09' E 012°06'0 0.0
2016-Jan-07 01:28N 54°09' E 012°06'0 0.0
2016-Jan-06 21:26N 54°09' E 012°06'0 0.0
2016-Jan-06 20:26N 54°09' E 012°06'0 0.0
2016-Jan-06 17:28N 54°09' E 012°06'0 0.0
2016-Jan-06 11:07N 54°09' E 012°06'0 0.0
2016-Jan-06 10:10N 54°09' E 012°06'0 0.0
2016-Jan-06 08:15N 54°09' E 012°06'0 0.0
2016-Jan-06 07:29N 54°09' E 012°06'0 0.0
2016-Jan-06 04:22N 54°09' E 012°06'0 0.0
2016-Jan-06 03:28N 54°09' E 012°06'0 0.0
2016-Jan-05 23:29N 54°09' E 012°06'0 0.0
2016-Jan-05 22:10N 54°09' E 012°06'0 0.0
2016-Jan-05 21:31N 54°09' E 012°06'0 0.0
2016-Jan-05 19:33N 54°09' E 012°06'0 0.0
2016-Jan-05 16:29N 54°09' E 012°06'0 0.0
2016-Jan-05 11:33N 54°09' E 012°06'0 0.0
2016-Jan-05 07:13N 54°09' E 012°06'0 0.0
2016-Jan-05 03:32N 54°09' E 012°06'0 0.0
2016-Jan-05 01:07N 54°09' E 012°06'0 0.0
2016-Jan-05 00:28N 54°09' E 012°06'0 0.0
2016-Jan-04 22:21N 54°09' E 012°06'0 0.0
2016-Jan-04 21:30N 54°09' E 012°06'0 0.0
2016-Jan-04 20:23N 54°09' E 012°06'0 0.0
2016-Jan-04 19:29N 54°09' E 012°06'0 0.0
2016-Jan-04 17:22N 54°09' E 012°06'0 0.0
2016-Jan-04 12:11N 54°09' E 012°06'0 0.0
2016-Jan-04 10:31N 54°09' E 012°06'0 0.0
2016-Jan-04 05:20N 54°09' E 012°06'0 0.0
2016-Jan-04 02:27N 54°09' E 012°06'0 0.0
2016-Jan-03 21:31N 54°09' E 012°06'0 0.0
2016-Jan-03 20:07N 54°09' E 012°06'0 0.0
2016-Jan-03 18:12N 54°09' E 012°06'0 0.0
2016-Jan-03 13:25N 54°09' E 012°06'0 0.0
2016-Jan-03 12:18N 54°09' E 012°06'0 0.0
2016-Jan-03 08:23N 54°09' E 012°06'  

Dump ship's entire track history